Weather at Boaco Airport

Public forecast

Using degrees Celsius for public forecast. Weather courtesy of forecast.io.

Closest aviation weather report (METAR) to Boaco Airport

Closest report is Juigalpa Airport, 28.2 nm (52.1 km) SE.

(retrieved 0 seconds ago)

Closest aviation forecast (TAF) to Boaco Airport

Closest forecast is Augusto C. Sandino (Managua) International Airport, 35.6 nm (65.9 km) WSW.

2024/06/21 06:27 (retrieved 1 hour ago)

TAF MNMG 210400Z 2106/2206 00000KT 9999 SCT022 SCT080 TEMPO 2112/2118 10006KT TEMPO 2119/2123 VRB08KT 7000 DZ/-TSRA SCT022CB SCT023